Terminal Aerodrome Forecast
Issued by NWS Tallahassee, FL

Home | Current Version | Previous Version | Text Only | Print | Product List | Glossary On
Versions: 1 2 3 4 5 6 7 8 9 10 11 12 13 14 15
578
FTUS42 KTAE 202320
TAFTLH
TAF
KTLH 202320Z 2100/2124 10005KT P6SM SCT200
     FM210400 10004KT P6SM BKN040
     FM211600 12007KT P6SM -RA BKN035=

USA.gov is the U.S. government's official web portal to all federal, state and local government web resources and services.